createdAt,value
2017-08-24T00:00:50.477Z,6.50
2017-08-24T00:03:20.809Z,6.90
2017-08-24T00:05:50.355Z,6.20
2017-08-24T00:08:20.186Z,6.32
2017-08-24T00:10:50.199Z,6.25
2017-08-24T00:13:19.925Z,7.97
2017-08-24T00:15:50.126Z,7.00
2017-08-24T00:18:20.439Z,6.40
2017-08-24T00:20:50.456Z,7.50
2017-08-24T00:23:20.515Z,6.95
2017-08-24T00:25:50.290Z,6.18
2017-08-24T00:29:23.591Z,6.20
2017-08-24T00:31:54.224Z,5.80
2017-08-24T00:34:23.836Z,5.70
2017-08-24T00:36:53.386Z,5.55
2017-08-24T00:39:23.267Z,5.82
2017-08-24T00:41:53.196Z,5.50
2017-08-24T00:44:23.126Z,5.32
2017-08-24T00:46:53.484Z,5.57
2017-08-24T00:49:23.582Z,5.45
2017-08-24T00:51:53.658Z,6.00
2017-08-24T00:54:23.828Z,5.63
2017-08-24T00:56:53.527Z,5.78
2017-08-24T00:59:23.578Z,5.33
2017-08-24T01:01:53.295Z,6.30
2017-08-24T01:04:23.018Z,6.00
2017-08-24T01:06:53.620Z,5.85
2017-08-24T01:09:23.220Z,6.15
2017-08-24T01:11:52.764Z,6.00
2017-08-24T01:14:22.523Z,5.40
2017-08-24T01:16:52.663Z,5.93
2017-08-24T01:19:23.013Z,5.47
2017-08-24T01:21:53.009Z,4.80
2017-08-24T01:24:22.671Z,5.28
2017-08-24T01:26:53.340Z,5.00
2017-08-24T01:29:22.915Z,4.80
2017-08-24T01:31:52.768Z,5.07
2017-08-24T01:34:22.642Z,4.43
2017-08-24T01:36:53.207Z,4.90
2017-08-24T01:39:23.581Z,5.20
2017-08-24T01:41:53.480Z,5.30
2017-08-24T01:44:23.356Z,5.78
2017-08-24T01:46:58.042Z,4.95
2017-08-24T01:49:27.760Z,4.70
2017-08-24T01:51:58.200Z,4.75
2017-08-24T01:54:28.072Z,4.90
2017-08-24T01:56:57.990Z,5.20
2017-08-24T01:59:28.392Z,5.03
2017-08-24T02:01:57.930Z,4.30
2017-08-24T02:04:27.967Z,4.47
2017-08-24T02:06:57.823Z,5.03
2017-08-24T02:09:27.563Z,5.05
2017-08-24T02:11:58.523Z,5.17
2017-08-24T02:14:28.671Z,4.37
2017-08-24T02:16:58.588Z,4.78
2017-08-24T02:19:28.654Z,4.95
2017-08-24T02:21:58.196Z,4.90
2017-08-24T02:24:28.085Z,4.73
2017-08-24T02:26:58.457Z,4.90
2017-08-24T02:29:28.436Z,4.50
2017-08-24T02:31:59.286Z,5.50
2017-08-24T02:34:29.279Z,4.80
2017-08-24T02:36:59.169Z,4.70
2017-08-24T02:39:29.075Z,5.00
2017-08-24T02:41:58.701Z,4.70
2017-08-24T02:44:28.494Z,5.00
2017-08-24T02:46:59.453Z,4.90
2017-08-24T02:49:29.083Z,4.80
2017-08-24T02:51:59.486Z,4.35
2017-08-24T02:54:29.260Z,5.10
2017-08-24T02:56:58.851Z,4.73
2017-08-24T02:59:28.427Z,5.00
2017-08-24T03:01:57.930Z,4.90
2017-08-24T03:04:28.883Z,4.80
2017-08-24T03:06:58.914Z,4.85
2017-08-24T03:09:29.115Z,4.85
2017-08-24T03:11:59.237Z,4.90
2017-08-24T03:14:28.759Z,4.53
2017-08-24T03:19:37.541Z,5.00
2017-08-24T03:22:07.646Z,4.62
2017-08-24T03:24:38.226Z,4.60
2017-08-24T03:27:07.940Z,4.95
2017-08-24T03:29:37.603Z,4.45
2017-08-24T03:32:07.856Z,4.75
2017-08-24T03:34:38.311Z,4.65
2017-08-24T03:37:08.011Z,4.53
2017-08-24T03:39:37.598Z,4.78
2017-08-24T03:42:08.610Z,4.55
2017-08-24T03:44:39.144Z,4.70
2017-08-24T03:47:09.292Z,4.87
2017-08-24T03:49:39.599Z,4.87
2017-08-24T03:52:09.650Z,4.35
2017-08-24T03:54:39.997Z,4.68
2017-08-24T03:57:10.549Z,4.30
2017-08-24T03:59:40.069Z,4.75
2017-08-24T04:02:09.606Z,4.55
2017-08-24T04:04:39.464Z,4.70
2017-08-24T04:07:09.046Z,4.87
2017-08-24T04:09:38.644Z,4.53
2017-08-24T04:12:08.228Z,4.67
2017-08-24T04:14:38.236Z,4.90
2017-08-24T04:17:08.264Z,4.97
2017-08-24T04:19:38.091Z,4.30
2017-08-24T04:22:08.383Z,4.70
2017-08-24T04:24:38.771Z,4.97
2017-08-24T04:27:08.269Z,4.40
2017-08-24T04:29:37.904Z,4.87
2017-08-24T04:32:07.438Z,4.60
2017-08-24T04:34:37.254Z,4.43
2017-08-24T04:37:07.309Z,4.68
2017-08-24T04:39:36.801Z,4.30
2017-08-24T04:42:06.438Z,4.30
2017-08-24T04:44:36.258Z,4.60
2017-08-24T04:47:05.985Z,5.20
2017-08-24T04:49:35.565Z,4.30
2017-08-24T04:52:05.091Z,4.20
2017-08-24T04:54:34.625Z,4.82
2017-08-24T04:57:04.423Z,4.20
2017-08-24T04:59:34.027Z,4.50
2017-08-24T05:02:03.615Z,4.87
2017-08-24T05:04:33.126Z,4.50
2017-08-24T05:07:02.680Z,4.40
2017-08-24T05:09:32.528Z,4.05
2017-08-24T05:12:02.133Z,4.70
2017-08-24T05:14:31.811Z,4.50
2017-08-24T05:17:02.125Z,4.35
2017-08-24T05:19:31.647Z,4.00
2017-08-24T05:22:01.703Z,4.28
2017-08-24T05:24:31.486Z,4.10
2017-08-24T05:27:02.078Z,4.00
2017-08-24T05:29:31.992Z,4.50
2017-08-24T05:32:01.532Z,3.90
2017-08-24T05:34:31.390Z,4.20
2017-08-24T05:37:01.031Z,4.43
2017-08-24T05:39:30.746Z,4.25
2017-08-24T05:42:02.691Z,3.65
2017-08-24T05:44:33.268Z,3.75
2017-08-24T05:47:04.864Z,3.97
2017-08-24T05:49:35.282Z,4.10
2017-08-24T05:52:06.349Z,4.05
2017-08-24T05:54:36.147Z,3.83
2017-08-24T05:57:05.948Z,4.07
2017-08-24T05:59:36.299Z,3.92
2017-08-24T06:02:06.639Z,3.90
2017-08-24T06:04:37.724Z,5.03
2017-08-24T06:07:07.300Z,3.45
2017-08-24T06:09:37.155Z,3.58
2017-08-24T06:12:06.909Z,3.42
2017-08-24T06:14:36.457Z,3.77
2017-08-24T06:17:06.023Z,4.10
2017-08-24T06:19:35.584Z,3.70
2017-08-24T06:22:05.490Z,3.45
2017-08-24T06:24:35.075Z,3.80
2017-08-24T06:27:05.452Z,3.80
2017-08-24T06:29:35.614Z,3.67
2017-08-24T06:32:05.543Z,3.70
2017-08-24T06:34:35.172Z,3.40
2017-08-24T06:37:04.701Z,3.67
2017-08-24T06:39:34.263Z,3.17
2017-08-24T06:42:04.843Z,3.20
2017-08-24T06:44:34.383Z,2.70
2017-08-24T06:47:04.658Z,3.30
2017-08-24T06:49:34.179Z,3.25
2017-08-24T06:52:03.678Z,3.63
2017-08-24T06:54:33.467Z,3.70
2017-08-24T06:57:03.027Z,3.20
2017-08-24T06:59:32.564Z,3.70
2017-08-24T07:02:02.384Z,3.40
2017-08-24T07:04:32.719Z,3.60
2017-08-24T07:07:02.300Z,3.10
2017-08-24T07:09:31.835Z,3.00
2017-08-24T07:12:01.348Z,3.80
2017-08-24T07:14:31.247Z,3.30
2017-08-24T07:17:00.958Z,3.33
2017-08-24T07:19:30.523Z,3.33
2017-08-24T07:22:00.064Z,3.17
2017-08-24T07:24:30.437Z,3.30
2017-08-24T07:27:00.251Z,3.17
2017-08-24T07:29:29.843Z,3.37
2017-08-24T07:31:59.660Z,3.47
2017-08-24T07:34:29.477Z,3.33
2017-08-24T07:36:59.140Z,3.27
2017-08-24T07:39:29.029Z,2.95
2017-08-24T07:41:58.595Z,3.20
2017-08-24T07:44:28.142Z,2.78
2017-08-24T07:46:58.918Z,2.90
2017-08-24T07:49:28.522Z,2.80
2017-08-24T07:51:58.099Z,2.80
2017-08-24T07:54:27.759Z,3.23
2017-08-24T07:56:57.605Z,2.75
2017-08-24T07:59:28.268Z,2.90
2017-08-24T08:01:58.631Z,3.00
2017-08-24T08:04:28.362Z,3.00
2017-08-24T08:06:58.027Z,3.22
2017-08-24T08:09:27.945Z,3.00
2017-08-24T08:11:58.554Z,2.60
2017-08-24T08:14:28.375Z,2.95
2017-08-24T08:16:59.421Z,3.17
2017-08-24T08:19:29.999Z,3.10
2017-08-24T08:21:59.644Z,2.90
2017-08-24T08:24:30.185Z,2.95
2017-08-24T08:27:00.723Z,2.70
2017-08-24T08:30:59.691Z,3.00
2017-08-24T08:33:29.470Z,2.70
2017-08-24T08:35:58.995Z,2.90
2017-08-24T08:38:28.562Z,2.57
2017-08-24T08:40:58.854Z,2.70
2017-08-24T08:43:28.932Z,2.70
2017-08-24T08:46:04.699Z,2.87
2017-08-24T08:48:35.106Z,2.80
2017-08-24T08:51:05.924Z,2.97
2017-08-24T08:53:36.268Z,2.90
2017-08-24T08:56:06.479Z,3.28
2017-08-24T08:58:36.231Z,2.83
2017-08-24T09:01:05.903Z,3.10
2017-08-24T09:03:35.739Z,2.92
2017-08-24T09:06:05.302Z,4.95
2017-08-24T09:08:38.422Z,3.40
2017-08-24T09:11:08.289Z,3.30
2017-08-24T09:13:37.862Z,3.90
2017-08-24T09:16:07.728Z,3.47
2017-08-24T09:18:37.333Z,2.83
2017-08-24T09:21:07.635Z,5.37
2017-08-24T09:23:37.235Z,3.28
2017-08-24T09:26:06.927Z,3.28
2017-08-24T09:28:36.990Z,3.40
2017-08-24T09:31:06.565Z,2.40
2017-08-24T09:33:38.479Z,2.53
2017-08-24T09:36:08.427Z,2.50
2017-08-24T09:38:37.996Z,2.80
2017-08-24T09:41:07.637Z,2.60
2017-08-24T09:43:37.242Z,3.00
2017-08-24T09:46:06.944Z,3.08
2017-08-24T09:48:36.890Z,3.15
2017-08-24T09:51:06.552Z,3.37
2017-08-24T09:53:36.901Z,3.50
2017-08-24T09:56:06.471Z,3.40
2017-08-24T09:58:36.742Z,3.87
2017-08-24T10:01:06.672Z,3.40
2017-08-24T10:03:38.095Z,3.30
2017-08-24T10:06:08.631Z,3.15
2017-08-24T10:08:38.655Z,3.28
2017-08-24T10:11:08.312Z,2.90
2017-08-24T10:13:37.984Z,3.40
2017-08-24T10:16:07.959Z,3.30
2017-08-24T10:18:38.419Z,3.20
2017-08-24T10:21:15.442Z,2.97
2017-08-24T10:23:48.344Z,3.10
2017-08-24T10:26:18.840Z,3.58
2017-08-24T10:28:48.974Z,2.70
2017-08-24T10:31:19.414Z,3.30
2017-08-24T10:33:52.629Z,2.75
2017-08-24T10:36:22.772Z,3.00
2017-08-24T10:38:52.407Z,2.80
2017-08-24T10:41:22.306Z,2.80
2017-08-24T10:43:52.312Z,3.20
2017-08-24T10:46:21.879Z,3.20
2017-08-24T10:48:54.659Z,3.20
2017-08-24T10:51:24.344Z,3.73
2017-08-24T10:53:53.970Z,3.12
2017-08-24T10:56:27.883Z,3.28
2017-08-24T10:58:57.395Z,3.53
2017-08-24T11:01:27.703Z,3.40
2017-08-24T11:03:58.249Z,3.60
2017-08-24T11:06:28.648Z,3.40
2017-08-24T11:08:58.498Z,4.32
2017-08-24T11:11:28.587Z,3.05
2017-08-24T11:13:59.584Z,3.22
2017-08-24T11:16:30.043Z,2.90
2017-08-24T11:18:59.648Z,3.00
2017-08-24T11:21:35.103Z,3.22
2017-08-24T11:24:05.144Z,3.35
2017-08-24T11:26:34.859Z,3.83
2017-08-24T11:29:05.429Z,3.70
2017-08-24T11:31:35.275Z,3.50
2017-08-24T11:34:11.322Z,3.90
2017-08-24T11:36:41.343Z,3.27
2017-08-24T11:39:11.580Z,3.50
2017-08-24T11:41:42.398Z,3.25
2017-08-24T11:44:12.271Z,3.60
2017-08-24T11:46:41.955Z,3.40
2017-08-24T11:49:12.023Z,3.47
2017-08-24T11:51:43.544Z,3.62
2017-08-24T11:54:13.579Z,3.70
2017-08-24T11:56:43.296Z,3.80
2017-08-24T11:59:13.087Z,3.90
2017-08-24T12:01:44.135Z,3.87
2017-08-24T12:04:22.238Z,4.00
2017-08-24T12:06:53.951Z,4.10
2017-08-24T12:09:23.702Z,4.00
2017-08-24T12:12:00.130Z,3.87
2017-08-24T12:14:30.878Z,4.18
2017-08-24T12:17:00.585Z,3.95
2017-08-24T12:19:30.986Z,3.65
2017-08-24T12:22:02.181Z,4.00
2017-08-24T12:24:32.056Z,4.77
2017-08-24T12:27:01.709Z,4.55
2017-08-24T12:29:31.543Z,4.20
2017-08-24T12:32:01.927Z,4.60
2017-08-24T12:34:31.442Z,4.03
2017-08-24T12:37:01.324Z,4.30
2017-08-24T12:39:31.291Z,4.45
2017-08-24T12:42:02.031Z,4.20
2017-08-24T12:44:31.594Z,4.12
2017-08-24T12:47:01.125Z,4.20
2017-08-24T12:49:31.476Z,4.30
2017-08-24T12:52:01.464Z,4.28
2017-08-24T12:54:31.816Z,4.30
2017-08-24T12:57:01.368Z,4.50
2017-08-24T12:59:31.359Z,4.55
2017-08-24T13:02:01.210Z,4.30
2017-08-24T13:04:30.913Z,4.20
2017-08-24T13:07:00.484Z,4.55
2017-08-24T13:09:30.346Z,4.27
2017-08-24T13:12:00.192Z,4.40
2017-08-24T13:14:30.162Z,4.43
2017-08-24T13:16:59.853Z,4.40
2017-08-24T13:19:29.391Z,4.43
2017-08-24T13:21:58.935Z,4.27
2017-08-24T13:24:28.538Z,4.17
2017-08-24T13:26:58.336Z,4.60
2017-08-24T13:29:27.976Z,4.10
2017-08-24T13:31:58.277Z,4.20
2017-08-24T13:34:27.850Z,4.70
2017-08-24T13:36:57.417Z,4.20
2017-08-24T13:39:27.546Z,4.65
2017-08-24T13:41:57.242Z,4.45
2017-08-24T13:44:27.056Z,4.50
2017-08-24T13:46:57.707Z,4.72
2017-08-24T13:49:27.624Z,4.00
2017-08-24T13:51:58.179Z,5.03
2017-08-24T13:54:28.055Z,4.53
2017-08-24T13:56:57.694Z,3.65
2017-08-24T13:59:27.244Z,3.90
2017-08-24T14:01:56.804Z,4.28
2017-08-24T14:04:26.345Z,4.47
2017-08-24T14:06:56.630Z,4.47
2017-08-24T14:09:26.178Z,4.10
2017-08-24T14:11:55.755Z,3.80
2017-08-24T14:14:25.327Z,3.97
2017-08-24T14:16:55.641Z,4.22
2017-08-24T14:19:25.490Z,4.05
2017-08-24T14:21:55.023Z,4.20
2017-08-24T14:24:24.586Z,4.00
2017-08-24T14:26:55.362Z,4.60
2017-08-24T14:29:24.899Z,4.60
2017-08-24T14:31:54.442Z,4.40
2017-08-24T14:34:24.011Z,4.50
2017-08-24T14:36:53.561Z,4.57
2017-08-24T14:39:23.434Z,4.37
2017-08-24T14:41:52.935Z,4.50
2017-08-24T14:44:22.512Z,4.70
2017-08-24T14:46:52.045Z,4.57
2017-08-24T14:49:21.535Z,4.60
2017-08-24T14:51:51.339Z,4.10
2017-08-24T14:54:20.943Z,4.57
2017-08-24T14:56:50.510Z,4.30
2017-08-24T14:59:21.160Z,4.55
2017-08-24T15:01:50.689Z,5.00
2017-08-24T15:04:20.281Z,4.27
2017-08-24T15:06:49.897Z,4.45
2017-08-24T15:09:19.613Z,3.90
2017-08-24T15:11:49.785Z,4.60
2017-08-24T15:14:19.322Z,4.30
2017-08-24T15:16:48.926Z,4.33
2017-08-24T15:19:18.875Z,4.30
2017-08-24T15:21:48.404Z,4.57
2017-08-24T15:24:18.135Z,4.47
2017-08-24T15:26:48.121Z,4.10
2017-08-24T15:29:17.732Z,4.60
2017-08-24T15:31:47.586Z,4.70
2017-08-24T15:34:17.927Z,4.50
2017-08-24T15:36:47.403Z,4.30
2017-08-24T15:39:16.947Z,4.80
2017-08-24T15:41:46.471Z,4.30
2017-08-24T15:44:16.298Z,4.65
2017-08-24T15:46:45.819Z,5.20
2017-08-24T15:49:15.694Z,4.57
2017-08-24T15:51:45.495Z,4.60
2017-08-24T15:54:15.026Z,4.62
2017-08-24T15:56:44.848Z,4.87
2017-08-24T15:59:14.376Z,4.82
2017-08-24T16:01:43.950Z,5.00
2017-08-24T16:04:13.871Z,4.60
2017-08-24T16:06:43.504Z,5.57
2017-08-24T16:09:13.125Z,5.68
2017-08-24T16:11:43.000Z,5.60
2017-08-24T16:14:12.599Z,5.60
2017-08-24T16:16:42.727Z,5.72
2017-08-24T16:19:12.237Z,5.90
2017-08-24T16:21:56.951Z,6.10
2017-08-24T16:24:26.988Z,6.10
2017-08-24T16:26:56.677Z,6.25
2017-08-24T16:29:27.082Z,5.93
2017-08-24T16:31:56.774Z,6.20
2017-08-24T16:34:26.274Z,6.20
2017-08-24T16:36:56.231Z,6.03
2017-08-24T16:39:26.590Z,6.47
2017-08-24T16:41:56.202Z,6.70
2017-08-24T16:44:26.051Z,6.40
2017-08-24T16:46:55.606Z,6.00
2017-08-24T16:49:25.211Z,6.90
2017-08-24T16:51:54.823Z,6.00
2017-08-24T16:54:24.587Z,6.22
2017-08-24T16:56:54.459Z,6.03
2017-08-24T16:59:24.151Z,6.28
2017-08-24T17:01:54.504Z,6.85
2017-08-24T17:04:24.478Z,7.12
2017-08-24T17:06:54.825Z,6.43
2017-08-24T17:09:24.358Z,6.45
2017-08-24T17:11:55.144Z,6.22
2017-08-24T17:14:29.495Z,6.90
2017-08-24T17:17:07.688Z,5.85
2017-08-24T17:19:39.442Z,6.57
2017-08-24T17:22:15.385Z,6.25
2017-08-24T17:24:45.054Z,7.50
2017-08-24T17:27:17.284Z,6.60
2017-08-24T17:29:48.976Z,7.62
2017-08-24T17:32:18.712Z,6.33
2017-08-24T17:34:48.259Z,6.68
2017-08-24T17:37:18.358Z,8.88
2017-08-24T17:39:48.488Z,6.50
2017-08-24T17:42:19.626Z,6.30
2017-08-24T17:44:51.024Z,6.00
2017-08-24T17:47:20.807Z,6.20
2017-08-24T17:49:50.383Z,6.30
2017-08-24T17:52:20.179Z,6.40
2017-08-24T17:54:50.480Z,6.10
2017-08-24T17:57:20.974Z,5.75
2017-08-24T17:59:50.595Z,5.63
2017-08-24T18:02:20.200Z,6.53
2017-08-24T18:04:50.763Z,5.87
2017-08-24T18:07:20.521Z,6.47
2017-08-24T18:09:50.471Z,6.00
2017-08-24T18:12:20.276Z,6.45
2017-08-24T18:14:50.375Z,6.40
2017-08-24T18:17:21.633Z,6.20
2017-08-24T18:19:52.487Z,6.50
2017-08-24T18:22:22.183Z,6.20
2017-08-24T18:24:52.626Z,6.75
2017-08-24T18:27:22.345Z,6.85
2017-08-24T18:29:52.335Z,7.15
2017-08-24T18:32:22.149Z,6.57
2017-08-24T18:34:51.890Z,6.53
2017-08-24T18:37:21.677Z,7.05
2017-08-24T18:39:52.237Z,7.75
2017-08-24T18:42:23.444Z,7.03
2017-08-24T18:44:53.948Z,6.87
2017-08-24T18:47:23.772Z,7.35
2017-08-24T18:49:54.655Z,6.97
2017-08-24T18:52:24.337Z,6.97
2017-08-24T18:54:54.079Z,6.90
2017-08-24T18:57:24.249Z,8.30
2017-08-24T19:00:05.592Z,8.13
2017-08-24T19:02:35.627Z,8.10
2017-08-24T19:05:05.373Z,7.70
2017-08-24T19:07:35.903Z,8.40
2017-08-24T19:10:06.691Z,8.70
2017-08-24T19:12:36.664Z,9.80
2017-08-24T19:15:06.445Z,9.18
2017-08-24T19:17:36.585Z,9.10
2017-08-24T19:20:07.130Z,9.05
2017-08-24T19:22:37.117Z,7.82
2017-08-24T19:25:06.898Z,6.80
2017-08-24T19:27:36.915Z,7.90
2017-08-24T19:30:07.226Z,8.23
2017-08-24T19:32:37.264Z,7.50
2017-08-24T19:35:08.526Z,8.13
2017-08-24T19:37:38.126Z,8.00
2017-08-24T19:40:07.763Z,7.95
2017-08-24T19:42:38.825Z,8.63
2017-08-24T19:45:08.675Z,8.00
2017-08-24T19:47:39.331Z,7.32
2017-08-24T19:50:09.293Z,6.80
2017-08-24T19:52:38.876Z,7.40
2017-08-24T19:55:09.689Z,8.48
2017-08-24T19:57:40.136Z,4.20
2017-08-24T20:00:10.626Z,4.10
2017-08-24T20:02:41.346Z,3.50
2017-08-24T20:05:11.012Z,4.80
2017-08-24T20:07:41.439Z,4.80
2017-08-24T20:10:12.542Z,5.30
2017-08-24T20:12:42.276Z,3.70
2017-08-24T20:15:11.828Z,3.80
2017-08-24T20:17:42.290Z,4.15
2017-08-24T20:20:11.876Z,4.10
2017-08-24T20:22:41.885Z,4.10
2017-08-24T20:25:11.766Z,3.90
2017-08-24T20:27:42.301Z,3.85
2017-08-24T20:30:12.558Z,3.47
2017-08-24T20:32:43.074Z,3.00
2017-08-24T20:35:12.916Z,2.40
2017-08-24T20:37:42.487Z,2.53
2017-08-24T20:40:12.802Z,2.75
2017-08-24T20:42:42.725Z,2.40
2017-08-24T20:45:12.273Z,2.70
2017-08-24T20:47:43.739Z,2.70
2017-08-24T20:50:13.977Z,2.42
2017-08-24T20:52:44.088Z,2.58
2017-08-24T20:55:13.927Z,2.62
2017-08-24T20:57:43.506Z,2.40
2017-08-24T21:00:13.456Z,2.60
2017-08-24T21:02:43.983Z,2.57
2017-08-24T21:05:13.580Z,2.67
2017-08-24T21:07:43.900Z,2.78
2017-08-24T21:10:13.504Z,2.90
2017-08-24T21:12:43.021Z,2.60
2017-08-24T21:15:13.634Z,2.80
2017-08-24T21:17:43.131Z,2.45
2017-08-24T21:20:12.976Z,2.27
2017-08-24T21:22:43.719Z,2.55
2017-08-24T21:25:13.996Z,2.80
2017-08-24T21:27:44.253Z,2.65
2017-08-24T21:30:13.860Z,2.40
2017-08-24T21:32:44.562Z,2.50
2017-08-24T21:35:14.475Z,2.90
2017-08-24T21:37:44.507Z,2.40
2017-08-24T21:40:17.463Z,2.35
2017-08-24T21:42:47.017Z,2.60
2017-08-24T21:45:17.338Z,2.60
2017-08-24T21:47:48.132Z,2.35
2017-08-24T21:50:17.676Z,2.70
2017-08-24T21:52:47.983Z,2.60
2017-08-24T21:55:17.890Z,2.40
2017-08-24T21:57:47.432Z,2.53
2017-08-24T22:00:18.251Z,2.50
2017-08-24T22:02:48.318Z,2.67
2017-08-24T22:05:18.179Z,2.40
2017-08-24T22:07:48.435Z,2.40
2017-08-24T22:10:18.494Z,2.80
2017-08-24T22:12:48.090Z,2.65
2017-08-24T22:15:18.487Z,2.60
2017-08-24T22:17:49.370Z,3.00
2017-08-24T22:20:19.355Z,3.20
2017-08-24T22:22:49.043Z,2.80
2017-08-24T22:25:19.612Z,3.53
2017-08-24T22:27:50.095Z,4.40
2017-08-24T22:30:20.075Z,3.67
2017-08-24T22:32:50.163Z,3.20
2017-08-24T22:35:19.799Z,3.00
2017-08-24T22:37:49.790Z,2.70
2017-08-24T22:40:19.997Z,2.42
2017-08-24T22:42:49.918Z,2.27
2017-08-24T22:45:19.919Z,2.70
2017-08-24T22:47:50.859Z,3.50
2017-08-24T22:50:21.606Z,3.40
2017-08-24T22:52:51.694Z,3.03
2017-08-24T22:56:24.395Z,2.80
2017-08-24T23:01:01.443Z,2.80
2017-08-24T23:04:02.845Z,2.60
2017-08-24T23:06:32.722Z,2.97
2017-08-24T23:09:02.838Z,2.65
2017-08-24T23:11:32.962Z,2.42
2017-08-24T23:14:02.464Z,2.53
2017-08-24T23:16:32.302Z,2.20
2017-08-24T23:19:02.278Z,2.60
2017-08-24T23:21:32.307Z,2.33
2017-08-24T23:24:02.103Z,2.47
2017-08-24T23:26:32.311Z,2.30
2017-08-24T23:29:02.203Z,2.30
2017-08-24T23:31:33.219Z,2.33
2017-08-24T23:34:03.228Z,2.37
2017-08-24T23:36:33.541Z,2.55
2017-08-24T23:39:03.468Z,2.40
2017-08-24T23:41:33.582Z,2.70
2017-08-24T23:44:03.677Z,2.60
2017-08-24T23:46:33.658Z,2.20
2017-08-24T23:49:04.061Z,2.33
2017-08-24T23:51:33.712Z,2.60
2017-08-24T23:54:03.347Z,2.50
2017-08-24T23:56:33.619Z,2.42
2017-08-24T23:59:03.210Z,2.35
